Time;durP1;ratioP1;P1;durP2;ratioP2;P2;SDS_P1;SDS_P2;PMS_P1;PMS_P2;Temp;Humidity;BMP_temperature;BMP_pressure;BME280_temperature;BME280_humidity;BME280_pressure;Samples;Min_cycle;Max_cycle;Signal;HPM_P1;HPM_P2
2022/04/13 00:01:41;;;;;;;13.90;8.60;;;;;;;;;;5029210;28;20030;-73
2022/04/13 00:04:07;;;;;;;14.25;9.70;;;;;;;;;;5024248;28;20392;-73
2022/04/13 00:06:38;;;;;;;13.02;8.35;;;;;;;;;;5027545;28;20073;-73
2022/04/13 00:09:11;;;;;;;11.18;8.38;;;;;;;;;;5026427;28;20533;-72
2022/04/13 00:11:37;;;;;;;12.38;7.93;;;;;;;;;;5024851;28;20618;-74
2022/04/13 00:14:06;;;;;;;11.68;7.50;;;;;;;;;;5023756;28;20176;-73
2022/04/13 00:16:37;;;;;;;14.32;8.85;;;;;;;;;;5024190;28;20086;-73
2022/04/13 00:19:03;;;;;;;12.88;7.75;;;;;;;;;;5026438;28;20026;-72
2022/04/13 00:21:29;;;;;;;11.98;7.20;;;;;;;;;;5021611;28;20025;-73
2022/04/13 00:23:56;;;;;;;10.75;7.68;;;;;;;;;;5024108;28;20021;-73
2022/04/13 00:26:23;;;;;;;12.07;6.82;;;;;;;;;;5028171;28;20038;-73
2022/04/13 00:28:50;;;;;;;14.00;7.38;;;;;;;;;;5029674;28;20086;-73
2022/04/13 00:31:16;;;;;;;11.30;7.25;;;;;;;;;;5030342;28;20033;-72
2022/04/13 00:33:42;;;;;;;9.38;6.60;;;;;;;;;;5033986;28;20022;-73
2022/04/13 00:36:08;;;;;;;10.85;6.35;;;;;;;;;;5048858;28;20029;-73
2022/04/13 00:38:34;;;;;;;9.57;6.55;;;;;;;;;;5049305;28;20029;-73
2022/04/13 00:41:00;;;;;;;11.60;6.70;;;;;;;;;;5051100;28;20061;-72
2022/04/13 00:43:29;;;;;;;10.00;6.70;;;;;;;;;;5041043;28;20014;-73
2022/04/13 00:45:55;;;;;;;11.63;6.95;;;;;;;;;;5028944;28;20060;-72
2022/04/13 00:48:36;;;;;;;9.73;6.15;;;;;;;;;;5028614;28;20084;-73
2022/04/13 00:51:03;;;;;;;10.13;6.65;;;;;;;;;;5043328;28;20017;-72
2022/04/13 00:53:32;;;;;;;9.98;7.07;;;;;;;;;;5032511;28;20014;-73
2022/04/13 00:56:02;;;;;;;9.45;6.55;;;;;;;;;;5026172;28;20026;-73
2022/04/13 00:58:38;;;;;;;9.85;6.30;;;;;;;;;;5025111;28;20101;-72
2022/04/13 01:01:05;;;;;;;10.85;6.75;;;;;;;;;;5021998;28;20021;-73
2022/04/13 01:03:31;;;;;;;10.77;6.75;;;;;;;;;;5022111;28;20395;-72
2022/04/13 01:05:57;;;;;;;10.43;6.68;;;;;;;;;;5025604;28;20516;-73
2022/04/13 01:08:28;;;;;;;11.07;6.90;;;;;;;;;;5023584;28;20050;-73
2022/04/13 01:11:00;;;;;;;10.35;5.97;;;;;;;;;;5023500;28;20026;-73
2022/04/13 01:13:26;;;;;;;8.45;5.90;;;;;;;;;;5025483;28;20033;-73
2022/04/13 01:15:53;;;;;;;8.75;6.00;;;;;;;;;;5022184;28;20097;-73
2022/04/13 01:18:19;;;;;;;8.77;5.78;;;;;;;;;;5020533;28;20558;-73
2022/04/13 01:20:56;;;;;;;7.95;5.68;;;;;;;;;;5024172;28;20053;-73
2022/04/13 01:23:33;;;;;;;7.80;5.50;;;;;;;;;;5026420;28;20370;-72
2022/04/13 01:25:59;;;;;;;9.35;5.63;;;;;;;;;;5026730;28;20034;-73
2022/04/13 01:28:25;;;;;;;9.02;6.00;;;;;;;;;;5035900;28;20386;-73
2022/04/13 01:30:51;;;;;;;9.23;5.50;;;;;;;;;;5043647;28;20005;-73
2022/04/13 01:33:17;;;;;;;9.13;5.22;;;;;;;;;;5027634;28;20021;-73
2022/04/13 01:35:43;;;;;;;9.05;5.03;;;;;;;;;;5029143;28;20022;-73
2022/04/13 01:38:09;;;;;;;8.38;5.28;;;;;;;;;;5025493;28;20026;-73
2022/04/13 01:40:35;;;;;;;7.63;5.40;;;;;;;;;;5030352;28;20501;-73
2022/04/13 01:43:01;;;;;;;9.00;5.30;;;;;;;;;;5036280;28;20009;-73
2022/04/13 01:45:30;;;;;;;9.18;4.97;;;;;;;;;;5038229;28;20013;-72
2022/04/13 01:47:56;;;;;;;7.95;5.13;;;;;;;;;;5038027;28;20022;-73
2022/04/13 01:50:22;;;;;;;6.18;4.82;;;;;;;;;;5033915;28;20078;-73
2022/04/13 01:52:48;;;;;;;7.18;4.75;;;;;;;;;;5030506;28;20026;-73
2022/04/13 01:55:15;;;;;;;6.65;4.75;;;;;;;;;;5033043;28;20037;-72
2022/04/13 01:57:41;;;;;;;6.47;4.20;;;;;;;;;;5034209;28;20054;-73
2022/04/13 02:00:09;;;;;;;6.43;4.70;;;;;;;;;;5033094;28;20014;-72
2022/04/13 02:02:35;;;;;;;6.35;4.40;;;;;;;;;;5041318;28;20009;-72
2022/04/13 02:05:01;;;;;;;6.93;5.00;;;;;;;;;;5045806;28;20088;-73
2022/04/13 02:07:28;;;;;;;7.95;4.32;;;;;;;;;;5036108;28;20061;-72
2022/04/13 02:10:10;;;;;;;6.25;4.07;;;;;;;;;;5043984;28;20037;-73
2022/04/13 02:12:37;;;;;;;7.15;3.88;;;;;;;;;;5052919;28;20113;-73
2022/04/13 02:15:06;;;;;;;6.10;4.00;;;;;;;;;;5039400;28;20026;-73
2022/04/13 02:17:32;;;;;;;7.72;4.30;;;;;;;;;;5031765;28;20013;-73
2022/04/13 02:19:58;;;;;;;5.22;3.90;;;;;;;;;;5034103;28;20030;-72
2022/04/13 02:22:24;;;;;;;6.00;4.35;;;;;;;;;;5039354;28;20014;-74
2022/04/13 02:24:51;;;;;;;8.60;4.07;;;;;;;;;;5034230;28;20014;-73
2022/04/13 02:27:42;;;;;;;6.18;4.13;;;;;;;;;;5037950;28;20127;-72
2022/04/13 02:30:09;;;;;;;6.55;4.03;;;;;;;;;;5038401;28;20038;-72
2022/04/13 02:32:39;;;;;;;6.55;3.97;;;;;;;;;;5045649;28;20041;-72
2022/04/13 02:35:23;;;;;;;6.63;4.10;;;;;;;;;;5060305;28;20013;-72
2022/04/13 02:37:58;;;;;;;6.57;4.05;;;;;;;;;;5043254;28;20060;-72
2022/04/13 02:40:24;;;;;;;5.97;4.00;;;;;;;;;;5041124;28;20029;-72
2022/04/13 02:42:50;;;;;;;6.03;3.72;;;;;;;;;;5040814;28;20054;-72
2022/04/13 02:45:16;;;;;;;5.57;3.50;;;;;;;;;;5040829;28;20093;-72
2022/04/13 02:47:42;;;;;;;5.97;4.00;;;;;;;;;;5077933;23;20063;-72
2022/04/13 02:50:09;;;;;;;6.88;3.90;;;;;;;;;;5054713;28;20037;-72
2022/04/13 02:52:35;;;;;;;7.22;4.05;;;;;;;;;;5054905;28;20482;-72
2022/04/13 02:55:01;;;;;;;6.03;3.95;;;;;;;;;;5057700;28;20017;-72
2022/04/13 02:57:27;;;;;;;5.50;3.65;;;;;;;;;;5059259;28;20025;-72
2022/04/13 02:59:53;;;;;;;5.32;3.67;;;;;;;;;;5042648;28;20014;-72
2022/04/13 03:02:22;;;;;;;6.43;4.22;;;;;;;;;;5046192;28;20034;-73
2022/04/13 03:04:49;;;;;;;6.10;3.65;;;;;;;;;;5053635;28;20036;-72
2022/04/13 03:07:16;;;;;;;11.30;4.10;;;;;;;;;;5055528;28;20056;-73
2022/04/13 03:09:43;;;;;;;6.20;4.13;;;;;;;;;;5052563;28;20025;-73
2022/04/13 03:12:10;;;;;;;6.10;4.00;;;;;;;;;;5050512;28;20026;-73
2022/04/13 03:14:39;;;;;;;6.88;4.30;;;;;;;;;;5052060;28;20025;-73
2022/04/13 03:17:05;;;;;;;7.63;4.15;;;;;;;;;;5046793;28;20129;-72
2022/04/13 03:19:31;;;;;;;7.65;4.07;;;;;;;;;;5049500;28;20020;-72
2022/04/13 03:21:57;;;;;;;5.63;3.70;;;;;;;;;;5037374;28;20017;-72
2022/04/13 03:24:29;;;;;;;6.63;3.78;;;;;;;;;;5056020;28;20026;-73
2022/04/13 03:26:55;;;;;;;9.02;3.90;;;;;;;;;;5051106;28;20030;-73
2022/04/13 03:29:22;;;;;;;5.10;3.65;;;;;;;;;;5052852;28;20038;-73
2022/04/13 03:31:48;;;;;;;6.55;3.80;;;;;;;;;;5035136;28;20033;-73
2022/04/13 03:34:14;;;;;;;6.70;3.80;;;;;;;;;;5056149;28;20088;-73
2022/04/13 03:36:40;;;;;;;9.43;4.05;;;;;;;;;;5052959;28;20061;-73
2022/04/13 03:39:07;;;;;;;5.00;3.53;;;;;;;;;;5038035;28;20014;-73
2022/04/13 03:41:36;;;;;;;5.00;3.50;;;;;;;;;;5046684;28;20017;-72
2022/04/13 03:44:02;;;;;;;6.38;3.40;;;;;;;;;;5040222;28;20056;-73
2022/04/13 03:46:28;;;;;;;8.32;4.15;;;;;;;;;;5029576;28;20054;-72
2022/04/13 03:48:54;;;;;;;5.97;4.13;;;;;;;;;;5024897;28;20022;-73
2022/04/13 03:51:21;;;;;;;6.35;3.75;;;;;;;;;;5039653;28;20033;-72
2022/04/13 03:53:49;;;;;;;6.75;3.83;;;;;;;;;;5032770;28;20053;-73
2022/04/13 03:56:15;;;;;;;6.88;3.85;;;;;;;;;;5034411;28;20045;-73
2022/04/13 03:58:41;;;;;;;6.18;3.75;;;;;;;;;;5023470;28;20029;-73
2022/04/13 04:01:07;;;;;;;6.68;3.83;;;;;;;;;;5020582;28;20026;-73
2022/04/13 04:03:40;;;;;;;7.90;3.92;;;;;;;;;;5011126;28;20032;-72
2022/04/13 04:06:08;;;;;;;6.63;4.05;;;;;;;;;;5016361;28;20038;-73
2022/04/13 04:08:35;;;;;;;7.75;3.90;;;;;;;;;;5029097;28;20060;-73
2022/04/13 04:11:01;;;;;;;7.13;4.10;;;;;;;;;;5031645;28;20018;-73
2022/04/13 04:13:30;;;;;;;5.43;4.18;;;;;;;;;;5031205;28;20070;-72
2022/04/13 04:15:56;;;;;;;8.20;4.30;;;;;;;;;;5019088;28;20014;-72
2022/04/13 04:18:22;;;;;;;7.28;4.38;;;;;;;;;;5016320;28;20488;-73
2022/04/13 04:20:48;;;;;;;7.85;4.07;;;;;;;;;;5030141;28;20033;-72
2022/04/13 04:23:14;;;;;;;7.97;4.05;;;;;;;;;;5041429;28;20025;-73
2022/04/13 04:25:44;;;;;;;6.95;4.10;;;;;;;;;;5037279;28;20048;-72
2022/04/13 04:28:11;;;;;;;5.90;4.00;;;;;;;;;;5036110;28;20030;-72
2022/04/13 04:30:41;;;;;;;6.70;4.20;;;;;;;;;;5054240;28;20044;-72
2022/04/13 04:33:08;;;;;;;5.97;3.95;;;;;;;;;;5050464;28;20013;-72
2022/04/13 04:35:34;;;;;;;30.30;4.95;;;;;;;;;;5020105;28;20025;-73
2022/04/13 04:38:01;;;;;;;8.80;4.43;;;;;;;;;;5024501;28;20088;-73
2022/04/13 04:40:27;;;;;;;7.32;4.15;;;;;;;;;;5008296;28;20051;-73
2022/04/13 04:42:54;;;;;;;6.90;4.05;;;;;;;;;;5018544;28;20030;-72
2022/04/13 04:45:20;;;;;;;7.80;4.43;;;;;;;;;;5018669;28;20040;-73
2022/04/13 04:47:47;;;;;;;5.97;3.80;;;;;;;;;;5022643;28;20073;-72
2022/04/13 04:50:14;;;;;;;5.50;3.83;;;;;;;;;;5006489;28;20049;-73
2022/04/13 04:52:45;;;;;;;6.88;3.80;;;;;;;;;;5024700;28;20033;-72
2022/04/13 04:55:12;;;;;;;5.80;3.90;;;;;;;;;;5025052;28;20028;-76
2022/04/13 04:57:42;;;;;;;5.65;3.95;;;;;;;;;;5034455;28;20086;-76
2022/04/13 05:00:10;;;;;;;5.68;3.85;;;;;;;;;;5040746;28;20021;-75
2022/04/13 05:02:39;;;;;;;8.18;4.00;;;;;;;;;;5035693;28;20080;-75
2022/04/13 05:05:05;;;;;;;6.63;3.70;;;;;;;;;;5035800;28;20029;-75
2022/04/13 05:07:32;;;;;;;5.15;3.42;;;;;;;;;;5017288;28;20124;-78
2022/04/13 05:09:58;;;;;;;9.48;5.82;;;;;;;;;;5020927;28;20026;-76
2022/04/13 05:12:24;;;;;;;6.57;4.35;;;;;;;;;;5027966;28;20448;-74
2022/04/13 05:14:52;;;;;;;7.82;4.65;;;;;;;;;;5031082;28;20029;-75
2022/04/13 05:17:18;;;;;;;6.82;4.15;;;;;;;;;;5028849;28;20483;-75
2022/04/13 05:19:44;;;;;;;6.72;3.70;;;;;;;;;;5032440;28;20037;-75
2022/04/13 05:22:13;;;;;;;8.70;3.90;;;;;;;;;;5034827;28;20033;-76
2022/04/13 05:24:39;;;;;;;8.43;4.15;;;;;;;;;;5036559;28;20454;-76
2022/04/13 05:27:05;;;;;;;7.10;4.10;;;;;;;;;;5027087;28;20041;-76
2022/04/13 05:29:31;;;;;;;7.55;4.40;;;;;;;;;;5038797;28;20036;-76
2022/04/13 05:31:57;;;;;;;6.85;4.43;;;;;;;;;;5042407;28;20049;-76
2022/04/13 05:34:23;;;;;;;6.68;4.60;;;;;;;;;;5035823;28;20026;-77
2022/04/13 05:36:54;;;;;;;8.00;4.90;;;;;;;;;;5040981;28;20029;-71
2022/04/13 05:39:29;;;;;;;7.07;4.93;;;;;;;;;;5038461;28;20036;-71
2022/04/13 05:41:57;;;;;;;8.48;4.80;;;;;;;;;;5028949;28;20026;-71
2022/04/13 05:44:23;;;;;;;10.25;5.22;;;;;;;;;;5036748;28;20085;-72
2022/04/13 05:46:49;;;;;;;7.97;5.15;;;;;;;;;;5039122;28;20100;-74
2022/04/13 05:49:16;;;;;;;13.85;5.18;;;;;;;;;;5036662;28;20071;-72
2022/04/13 05:51:42;;;;;;;7.68;5.07;;;;;;;;;;5048081;28;20036;-72
2022/04/13 05:54:08;;;;;;;9.43;4.95;;;;;;;;;;5045746;28;20026;-77
2022/04/13 05:56:34;;;;;;;8.75;5.30;;;;;;;;;;5041046;28;20075;-73
2022/04/13 05:59:00;;;;;;;21.50;5.75;;;;;;;;;;5030715;28;20026;-73
2022/04/13 06:01:28;;;;;;;8.10;5.03;;;;;;;;;;5036733;28;20057;-75
2022/04/13 06:03:54;;;;;;;9.50;5.47;;;;;;;;;;5034015;28;20033;-72
2022/04/13 06:06:25;;;;;;;15.40;6.18;;;;;;;;;;5033965;28;20022;-76
2022/04/13 06:08:51;;;;;;;8.90;5.55;;;;;;;;;;5013359;28;20059;-75
2022/04/13 06:11:17;;;;;;;7.80;5.18;;;;;;;;;;5028696;28;20032;-70
2022/04/13 06:13:43;;;;;;;6.88;5.00;;;;;;;;;;5028529;28;20122;-70
2022/04/13 06:16:09;;;;;;;9.63;6.05;;;;;;;;;;5042807;28;20029;-77
2022/04/13 06:18:35;;;;;;;6.57;4.90;;;;;;;;;;5055898;28;20060;-75
2022/04/13 06:21:01;;;;;;;10.20;5.20;;;;;;;;;;5032270;28;20041;-70
2022/04/13 06:23:27;;;;;;;8.60;5.18;;;;;;;;;;5040948;28;20018;-76
2022/04/13 06:25:54;;;;;;;8.35;5.32;;;;;;;;;;5032468;28;20029;-78
2022/04/13 06:28:20;;;;;;;7.88;5.38;;;;;;;;;;5040552;28;20491;-77
2022/04/13 06:30:46;;;;;;;7.45;4.97;;;;;;;;;;5031408;28;20037;-77
2022/04/13 06:33:12;;;;;;;9.95;5.47;;;;;;;;;;5020933;28;20489;-76
2022/04/13 06:35:38;;;;;;;8.82;5.32;;;;;;;;;;5020716;28;20026;-76
2022/04/13 06:38:04;;;;;;;7.53;5.40;;;;;;;;;;5018429;28;20036;-77
2022/04/13 06:40:30;;;;;;;9.55;4.95;;;;;;;;;;5026062;28;20049;-77
2022/04/13 06:42:57;;;;;;;8.07;5.18;;;;;;;;;;5045360;28;20030;-77
2022/04/13 06:45:23;;;;;;;7.30;5.13;;;;;;;;;;5040710;28;20037;-78
2022/04/13 06:47:51;;;;;;;8.13;5.35;;;;;;;;;;5038154;28;20060;-76
2022/04/13 06:50:17;;;;;;;9.95;5.53;;;;;;;;;;5025280;28;20387;-71
2022/04/13 06:52:44;;;;;;;7.93;5.05;;;;;;;;;;5034997;28;20025;-73
2022/04/13 06:55:10;;;;;;;7.05;5.65;;;;;;;;;;5040106;28;20017;-71
2022/04/13 06:57:37;;;;;;;7.45;5.90;;;;;;;;;;5043549;28;20041;-72
2022/04/13 07:00:07;;;;;;;8.57;5.97;;;;;;;;;;5040151;28;20100;-72
2022/04/13 07:02:34;;;;;;;9.55;5.47;;;;;;;;;;5039771;28;20089;-75
2022/04/13 07:05:00;;;;;;;7.30;5.30;;;;;;;;;;5037415;28;20104;-73
2022/04/13 07:07:31;;;;;;;11.10;6.07;;;;;;;;;;5034500;28;20545;-75
2022/04/13 07:09:59;;;;;;;11.70;6.15;;;;;;;;;;5022760;28;20054;-76
2022/04/13 07:12:25;;;;;;;11.80;6.03;;;;;;;;;;5034146;28;20480;-82
2022/04/13 07:14:51;;;;;;;12.05;5.53;;;;;;;;;;5032349;28;20022;-78
2022/04/13 07:17:17;;;;;;;11.23;5.78;;;;;;;;;;5027626;28;20033;-76
2022/04/13 07:19:43;;;;;;;12.73;6.00;;;;;;;;;;5031770;28;20083;-85
2022/04/13 07:22:09;;;;;;;11.57;6.20;;;;;;;;;;5033818;28;20029;-86
2022/04/13 07:24:35;;;;;;;8.38;5.53;;;;;;;;;;5027712;28;20025;-77
2022/04/13 07:27:02;;;;;;;8.88;5.50;;;;;;;;;;5014454;28;20033;-74
2022/04/13 07:29:28;;;;;;;10.32;5.88;;;;;;;;;;5032374;28;20034;-76
2022/04/13 07:31:54;;;;;;;10.77;5.72;;;;;;;;;;5033338;28;20082;-77
2022/04/13 07:34:22;;;;;;;9.43;6.20;;;;;;;;;;5012718;28;20076;-79
2022/04/13 07:36:48;;;;;;;9.23;5.75;;;;;;;;;;5021362;28;20021;-78
2022/04/13 07:39:14;;;;;;;9.20;5.63;;;;;;;;;;5032463;28;20022;-77
2022/04/13 07:41:40;;;;;;;9.50;6.25;;;;;;;;;;5032496;28;20075;-82
2022/04/13 07:44:06;;;;;;;11.27;6.18;;;;;;;;;;5029476;28;20395;-75
2022/04/13 07:46:32;;;;;;;10.43;5.75;;;;;;;;;;5028864;28;20056;-75
2022/04/13 07:48:59;;;;;;;9.43;5.75;;;;;;;;;;5030442;28;20072;-77
2022/04/13 07:51:25;;;;;;;9.35;6.30;;;;;;;;;;5026650;28;20033;-78
2022/04/13 07:53:51;;;;;;;9.40;6.30;;;;;;;;;;5035970;28;20518;-76
2022/04/13 07:56:20;;;;;;;7.80;5.82;;;;;;;;;;5042262;28;20475;-76
2022/04/13 07:58:48;;;;;;;10.93;6.35;;;;;;;;;;5027744;28;20163;-74
2022/04/13 08:01:16;;;;;;;16.33;6.90;;;;;;;;;;5021094;28;20037;-71
2022/04/13 08:03:42;;;;;;;8.73;6.22;;;;;;;;;;5027563;28;20034;-72
2022/04/13 08:06:11;;;;;;;11.35;6.72;;;;;;;;;;5028516;28;20308;-74
2022/04/13 08:08:38;;;;;;;11.32;6.60;;;;;;;;;;5029963;28;20041;-72
2022/04/13 08:11:04;;;;;;;11.80;5.72;;;;;;;;;;5029544;28;20484;-75
2022/04/13 08:13:30;;;;;;;13.50;5.30;;;;;;;;;;5021543;28;20025;-74
2022/04/13 08:15:56;;;;;;;11.90;5.72;;;;;;;;;;5019628;28;20026;-75
2022/04/13 08:18:22;;;;;;;8.05;5.38;;;;;;;;;;5026388;28;20413;-72
2022/04/13 08:20:49;;;;;;;6.88;5.45;;;;;;;;;;5029576;28;20402;-74
2022/04/13 08:23:15;;;;;;;8.43;5.53;;;;;;;;;;5034476;28;20419;-76
2022/04/13 08:25:42;;;;;;;9.45;4.97;;;;;;;;;;5036739;28;20116;-74
2022/04/13 08:28:08;;;;;;;10.18;5.15;;;;;;;;;;5027390;28;20030;-69
2022/04/13 08:30:36;;;;;;;9.40;5.18;;;;;;;;;;5028989;28;20030;-74
2022/04/13 08:33:03;;;;;;;11.38;5.20;;;;;;;;;;5038940;28;20026;-77
2022/04/13 08:35:31;;;;;;;6.93;4.97;;;;;;;;;;5041011;28;20040;-75
2022/04/13 08:37:57;;;;;;;12.85;5.80;;;;;;;;;;5037508;28;20434;-71
2022/04/13 08:40:23;;;;;;;7.15;4.68;;;;;;;;;;5034914;28;21854;-75
2022/04/13 08:43:03;;;;;;;7.93;5.20;;;;;;;;;;5025410;28;20036;-75
2022/04/13 08:45:32;;;;;;;8.02;5.10;;;;;;;;;;5039162;28;20014;-78
2022/04/13 08:47:59;;;;;;;11.18;4.68;;;;;;;;;;5038863;28;20041;-74
2022/04/13 08:50:28;;;;;;;8.82;5.35;;;;;;;;;;5028737;28;20037;-75
2022/04/13 08:52:57;;;;;;;7.80;5.30;;;;;;;;;;5035178;28;20025;-74
2022/04/13 08:55:24;;;;;;;6.93;5.20;;;;;;;;;;5026182;28;20026;-74
2022/04/13 08:57:50;;;;;;;11.20;4.70;;;;;;;;;;5027398;28;20076;-76
2022/04/13 09:00:20;;;;;;;10.73;4.63;;;;;;;;;;5033555;28;20029;-78
2022/04/13 09:03:02;;;;;;;8.93;4.88;;;;;;;;;;5042508;28;20089;-75
2022/04/13 09:05:28;;;;;;;11.25;4.90;;;;;;;;;;5032561;28;20568;-74
2022/04/13 09:08:13;;;;;;;18.40;4.95;;;;;;;;;;5041336;28;20029;-71
2022/04/13 09:10:41;;;;;;;6.78;4.20;;;;;;;;;;5042999;28;20048;-71
2022/04/13 09:13:11;;;;;;;16.77;4.78;;;;;;;;;;5040259;28;20452;-72
2022/04/13 09:15:41;;;;;;;6.15;3.90;;;;;;;;;;5038908;28;20010;-72
2022/04/13 09:18:11;;;;;;;6.70;4.53;;;;;;;;;;5046384;28;20073;-71
2022/04/13 09:20:38;;;;;;;6.57;4.18;;;;;;;;;;5036612;28;20018;-77
2022/04/13 09:23:04;;;;;;;7.32;4.47;;;;;;;;;;5041537;28;20471;-76
2022/04/13 09:25:31;;;;;;;6.47;3.90;;;;;;;;;;5039255;28;20091;-70
2022/04/13 09:27:58;;;;;;;28.48;5.30;;;;;;;;;;5040952;28;20056;-71
2022/04/13 09:30:25;;;;;;;22.52;6.22;;;;;;;;;;5035796;28;20034;-75
2022/04/13 09:32:51;;;;;;;6.65;4.00;;;;;;;;;;5036245;28;20037;-76
2022/04/13 09:35:27;;;;;;;5.25;3.83;;;;;;;;;;5044868;28;20028;-77
2022/04/13 09:37:58;;;;;;;9.45;4.22;;;;;;;;;;5039982;28;20028;-77
2022/04/13 09:40:35;;;;;;;7.10;3.90;;;;;;;;;;5027161;28;20021;-77
2022/04/13 09:43:07;;;;;;;6.70;4.15;;;;;;;;;;5039024;28;20025;-77
2022/04/13 09:45:39;;;;;;;6.55;3.83;;;;;;;;;;5005095;28;20541;-76
2022/04/13 09:48:06;;;;;;;5.72;3.28;;;;;;;;;;5016449;28;20049;-77
2022/04/13 09:50:32;;;;;;;5.78;3.47;;;;;;;;;;5031439;28;20056;-72
2022/04/13 09:53:03;;;;;;;6.80;3.50;;;;;;;;;;5029961;28;20152;-70
2022/04/13 09:55:29;;;;;;;7.88;3.63;;;;;;;;;;5017048;28;20068;-77
2022/04/13 09:58:09;;;;;;;6.10;3.83;;;;;;;;;;5035588;28;20379;-68
2022/04/13 10:00:35;;;;;;;7.32;3.72;;;;;;;;;;5033764;28;20034;-73
2022/04/13 10:03:08;;;;;;;5.20;3.30;;;;;;;;;;5035769;28;20044;-75
2022/04/13 10:05:34;;;;;;;22.27;4.53;;;;;;;;;;5032246;28;20040;-72
2022/04/13 10:08:04;;;;;;;6.30;3.95;;;;;;;;;;5037490;28;20503;-75
2022/04/13 10:10:31;;;;;;;5.90;3.83;;;;;;;;;;5037137;28;20021;-74
2022/04/13 10:12:57;;;;;;;8.95;5.30;;;;;;;;;;5038509;28;20025;-69
2022/04/13 10:15:23;;;;;;;4.78;3.40;;;;;;;;;;5032400;28;20021;-73
2022/04/13 10:17:49;;;;;;;7.40;3.97;;;;;;;;;;5037257;28;20029;-77
2022/04/13 10:20:15;;;;;;;4.93;3.45;;;;;;;;;;5036852;28;20387;-75
2022/04/13 10:22:57;;;;;;;9.00;4.28;;;;;;;;;;5036421;28;20109;-77
2022/04/13 10:25:26;;;;;;;5.95;3.60;;;;;;;;;;5031414;28;20476;-73
2022/04/13 10:27:56;;;;;;;10.20;4.30;;;;;;;;;;5029051;28;20080;-68
2022/04/13 10:30:28;;;;;;;6.30;3.75;;;;;;;;;;5037343;28;20030;-77
2022/04/13 10:32:59;;;;;;;5.38;3.70;;;;;;;;;;5036952;28;20109;-68
2022/04/13 10:35:28;;;;;;;6.35;3.60;;;;;;;;;;5034731;28;20422;-75
2022/04/13 10:37:55;;;;;;;5.93;3.58;;;;;;;;;;5030633;28;20056;-75
2022/04/13 10:40:23;;;;;;;7.43;3.72;;;;;;;;;;5036082;28;20025;-74
2022/04/13 10:42:51;;;;;;;5.50;3.63;;;;;;;;;;5037031;28;20024;-72
2022/04/13 10:45:18;;;;;;;5.38;3.20;;;;;;;;;;5036174;28;20541;-69
2022/04/13 10:47:53;;;;;;;4.50;3.40;;;;;;;;;;5031985;28;20570;-69
2022/04/13 10:50:32;;;;;;;8.65;3.75;;;;;;;;;;5037970;28;20083;-76
2022/04/13 10:53:09;;;;;;;6.45;3.30;;;;;;;;;;5037219;28;20043;-71
2022/04/13 10:55:36;;;;;;;8.20;4.10;;;;;;;;;;5036837;28;20025;-76
2022/04/13 10:58:17;;;;;;;6.38;3.70;;;;;;;;;;5028131;28;20026;-69
2022/04/13 11:00:46;;;;;;;6.43;3.95;;;;;;;;;;5036332;28;20100;-70
2022/04/13 11:03:12;;;;;;;6.60;3.38;;;;;;;;;;5036543;28;20018;-68
2022/04/13 11:05:40;;;;;;;5.22;3.22;;;;;;;;;;5018784;28;20689;-68
2022/04/13 11:08:15;;;;;;;17.67;4.45;;;;;;;;;;5031892;28;20041;-69
2022/04/13 11:10:43;;;;;;;6.63;3.50;;;;;;;;;;5035445;28;20021;-74
2022/04/13 11:13:09;;;;;;;7.47;3.15;;;;;;;;;;5037809;28;20056;-72
2022/04/13 11:15:43;;;;;;;6.53;3.38;;;;;;;;;;5037597;28;20083;-77
2022/04/13 11:18:09;;;;;;;7.20;3.35;;;;;;;;;;5028119;28;20029;-77
2022/04/13 11:20:38;;;;;;;8.95;3.38;;;;;;;;;;5026667;28;20026;-74
2022/04/13 11:23:14;;;;;;;8.45;3.95;;;;;;;;;;5036403;28;20021;-71
2022/04/13 11:25:46;;;;;;;4.43;3.20;;;;;;;;;;5038498;28;20112;-73
2022/04/13 11:28:22;;;;;;;5.75;3.45;;;;;;;;;;5036280;28;20112;-70
2022/04/13 11:31:01;;;;;;;5.00;3.10;;;;;;;;;;5036675;28;20498;-68
2022/04/13 11:33:44;;;;;;;11.25;3.45;;;;;;;;;;5035785;28;20032;-74
2022/04/13 11:36:11;;;;;;;9.50;3.78;;;;;;;;;;5039635;28;20361;-77
2022/04/13 11:38:37;;;;;;;6.07;3.20;;;;;;;;;;5036319;28;20029;-75
2022/04/13 11:41:07;;;;;;;5.25;2.83;;;;;;;;;;5034449;28;20148;-75
2022/04/13 11:43:34;;;;;;;7.28;3.13;;;;;;;;;;5038174;28;20077;-76
2022/04/13 11:46:00;;;;;;;6.15;2.80;;;;;;;;;;5038575;28;20391;-70
2022/04/13 11:48:33;;;;;;;7.20;3.10;;;;;;;;;;5037027;28;20041;-71
2022/04/13 11:51:17;;;;;;;4.95;3.00;;;;;;;;;;5032827;28;20078;-68
2022/04/13 11:53:53;;;;;;;5.25;3.08;;;;;;;;;;5035146;28;20029;-71
2022/04/13 11:56:30;;;;;;;4.15;2.72;;;;;;;;;;5034888;28;20045;-69
2022/04/13 11:58:57;;;;;;;5.13;3.25;;;;;;;;;;5036188;28;20041;-74
2022/04/13 12:01:24;;;;;;;4.68;3.17;;;;;;;;;;5035736;28;20091;-76
2022/04/13 12:03:50;;;;;;;5.65;2.85;;;;;;;;;;5035657;28;20127;-77
2022/04/13 12:06:25;;;;;;;7.10;3.30;;;;;;;;;;5037236;28;20120;-77
2022/04/13 12:08:55;;;;;;;5.30;2.90;;;;;;;;;;5034219;28;20061;-68
2022/04/13 12:11:23;;;;;;;7.78;4.13;;;;;;;;;;5032612;28;20026;-68
2022/04/13 12:13:49;;;;;;;8.38;3.40;;;;;;;;;;5034819;28;20052;-72
2022/04/13 12:16:19;;;;;;;4.78;2.88;;;;;;;;;;5029401;28;20030;-74
2022/04/13 12:18:46;;;;;;;6.65;3.03;;;;;;;;;;5037549;28;20053;-77
2022/04/13 12:21:13;;;;;;;6.32;3.70;;;;;;;;;;5037197;28;20017;-77
2022/04/13 12:23:40;;;;;;;6.88;3.10;;;;;;;;;;5022104;28;20045;-78
2022/04/13 12:26:07;;;;;;;5.25;2.80;;;;;;;;;;5031650;28;20041;-77
2022/04/13 12:28:34;;;;;;;6.82;3.95;;;;;;;;;;5037630;28;20033;-69
2022/04/13 12:31:04;;;;;;;4.25;2.65;;;;;;;;;;5039349;28;20072;-68
2022/04/13 12:33:31;;;;;;;4.40;2.88;;;;;;;;;;5032629;28;20080;-71
2022/04/13 12:35:59;;;;;;;4.47;2.90;;;;;;;;;;5032771;28;20378;-68
2022/04/13 12:38:28;;;;;;;7.07;3.25;;;;;;;;;;5035416;28;20037;-68
2022/04/13 12:41:13;;;;;;;4.93;3.00;;;;;;;;;;5034784;28;20109;-69
2022/04/13 12:43:41;;;;;;;6.38;3.30;;;;;;;;;;5033012;28;20199;-68
2022/04/13 12:46:09;;;;;;;4.20;3.00;;;;;;;;;;5037573;28;20026;-70
2022/04/13 12:48:36;;;;;;;4.90;2.85;;;;;;;;;;5035715;28;20487;-71
2022/04/13 12:51:02;;;;;;;6.80;2.92;;;;;;;;;;5035224;28;20091;-76
2022/04/13 12:53:31;;;;;;;8.35;3.10;;;;;;;;;;5035757;28;20041;-73
2022/04/13 12:55:58;;;;;;;5.88;3.67;;;;;;;;;;5035099;28;20028;-69
2022/04/13 12:58:24;;;;;;;8.55;3.05;;;;;;;;;;5038296;28;20116;-70
2022/04/13 13:00:52;;;;;;;4.95;2.83;;;;;;;;;;5036017;28;20022;-70
2022/04/13 13:03:18;;;;;;;4.60;2.67;;;;;;;;;;5035532;28;20100;-75
2022/04/13 13:05:45;;;;;;;4.60;2.88;;;;;;;;;;5036316;28;20024;-77
2022/04/13 13:08:11;;;;;;;5.35;3.15;;;;;;;;;;5034295;28;20041;-68
2022/04/13 13:10:37;;;;;;;10.38;3.05;;;;;;;;;;5034663;28;20100;-68
2022/04/13 13:13:10;;;;;;;6.45;2.85;;;;;;;;;;5034834;28;20021;-68
2022/04/13 13:15:36;;;;;;;5.32;2.70;;;;;;;;;;5030177;28;20042;-69
2022/04/13 13:18:09;;;;;;;5.18;2.65;;;;;;;;;;5028567;28;20067;-76
2022/04/13 13:20:36;;;;;;;4.28;2.92;;;;;;;;;;5023545;28;20041;-77
2022/04/13 13:23:10;;;;;;;4.35;2.75;;;;;;;;;;5032865;28;20025;-73
2022/04/13 13:25:42;;;;;;;6.47;3.42;;;;;;;;;;5032828;28;20486;-76
2022/04/13 13:28:10;;;;;;;4.45;3.15;;;;;;;;;;5031770;28;20047;-74
2022/04/13 13:30:40;;;;;;;14.43;3.58;;;;;;;;;;5033901;28;20021;-78
2022/04/13 13:33:13;;;;;;;9.90;2.80;;;;;;;;;;5033429;28;20097;-77
2022/04/13 13:35:39;;;;;;;4.60;2.85;;;;;;;;;;5034583;28;20125;-77
2022/04/13 13:38:05;;;;;;;5.43;3.33;;;;;;;;;;5030486;28;20018;-76
2022/04/13 13:40:34;;;;;;;4.85;3.35;;;;;;;;;;5036769;28;20010;-75
2022/04/13 13:43:03;;;;;;;4.45;3.00;;;;;;;;;;5036349;28;20379;-68
2022/04/13 13:45:30;;;;;;;6.30;3.47;;;;;;;;;;5036356;28;20025;-69
2022/04/13 13:47:56;;;;;;;7.25;3.08;;;;;;;;;;5030759;28;20054;-68
2022/04/13 13:50:22;;;;;;;34.28;4.78;;;;;;;;;;5036964;28;20018;-68
2022/04/13 13:52:51;;;;;;;4.53;3.00;;;;;;;;;;5036552;28;20052;-70
2022/04/13 13:55:24;;;;;;;6.97;3.50;;;;;;;;;;5027527;28;20017;-67
2022/04/13 13:57:51;;;;;;;11.80;3.40;;;;;;;;;;5032428;28;20042;-70
2022/04/13 14:00:18;;;;;;;5.47;3.45;;;;;;;;;;5033040;28;20025;-77
2022/04/13 14:02:52;;;;;;;7.72;3.58;;;;;;;;;;5036650;28;20049;-68
2022/04/13 14:05:30;;;;;;;8.45;3.50;;;;;;;;;;5034986;28;20464;-70
2022/04/13 14:07:58;;;;;;;5.05;3.30;;;;;;;;;;5032212;28;20160;-67
2022/04/13 14:10:24;;;;;;;9.38;3.58;;;;;;;;;;5024400;28;20468;-68
2022/04/13 14:12:51;;;;;;;6.50;3.50;;;;;;;;;;5037346;28;20121;-70
2022/04/13 14:15:18;;;;;;;4.38;3.05;;;;;;;;;;5030102;28;20032;-72
2022/04/13 14:17:45;;;;;;;4.10;2.92;;;;;;;;;;5042752;28;20040;-73
2022/04/13 14:20:12;;;;;;;5.28;3.40;;;;;;;;;;5034115;28;20022;-70
2022/04/13 14:22:41;;;;;;;8.88;3.78;;;;;;;;;;5040326;28;20049;-74
2022/04/13 14:25:08;;;;;;;4.10;3.10;;;;;;;;;;5036752;28;20514;-74
2022/04/13 14:27:35;;;;;;;7.60;3.40;;;;;;;;;;5038528;28;20045;-77
2022/04/13 14:30:10;;;;;;;10.40;3.50;;;;;;;;;;5028275;28;20025;-71
2022/04/13 14:32:39;;;;;;;6.53;3.13;;;;;;;;;;5032320;28;20068;-70
2022/04/13 14:35:07;;;;;;;4.65;3.22;;;;;;;;;;5033591;28;20121;-70
2022/04/13 14:37:37;;;;;;;5.38;3.30;;;;;;;;;;5023328;28;20040;-72
2022/04/13 14:40:07;;;;;;;23.75;4.10;;;;;;;;;;5032851;28;20034;-76
2022/04/13 14:42:33;;;;;;;6.15;3.10;;;;;;;;;;5034210;28;20023;-72
2022/04/13 14:44:59;;;;;;;12.85;3.72;;;;;;;;;;5043882;28;20047;-72
2022/04/13 14:47:25;;;;;;;9.15;3.10;;;;;;;;;;5042198;28;20048;-69